Latest Weather Observations for Mount Magnet Airport

IDW60801

Issued at 12:05 pm WST Friday 22 August 2014 (issued every 30 minutes, with the page automatically refreshed every 10 minutes)

About weather observations | Map of weather stations | Latest weather observations for WA | Other Formats
Station Details ID: 007600 Name: MOUNT MAGNET AERO Lat: -28.12 Lon: 117.84 Height: 407.0 m
Data from the previous 72 hours. | See also: Recent months at Mount Magnet Airport
Date/Time
WST
Temp
°C
App
Temp
°C
Dew
Point
Rel
Hum
%
Delta-T
°C
Wind Press
QNH
hPa
Press
MSL
hPa
Rain
since 9 am
mm
Dir
 
Spd
km/h
Gust
km/h
Spd
kts
Gust
kts
22/12:00pm 17.3 14.9 10.2 63 3.8 SSE 13 17 7 9 1022.5 1022.0 0.0
22/11:30am 17.2 14.9 10.3 64 3.7 SE 13 20 7 11 1022.8 1022.3 0.0
22/11:00am 15.8 12.4 11.2 74 2.5 SSE 20 28 11 15 1023.1 1022.6 0.0
22/10:30am 15.4 11.6 11.2 76 2.3 S 22 30 12 16 1023.2 1022.7 0.0
22/10:00am 15.1 11.1 11.7 80 1.9 S 24 30 13 16 1023.3 1022.8 0.0
22/09:30am 15.2 11.3 12.1 82 1.7 SSW 24 28 13 15 1023.1 1022.6 0.0
22/09:00am 14.6 11.4 11.9 84 1.5 S 20 26 11 14 1022.9 1022.4 2.2
22/08:30am 13.8 11.6 12.0 89 1.0 SSW 15 20 8 11 1022.7 1022.2 2.2
22/08:00am 13.1 11.8 12.6 97 0.3 SW 11 15 6 8 1022.1 1021.6 2.2
22/07:30am 12.5 11.8 12.0 97 0.3 SW 7 9 4 5 1021.7 1021.2 2.2
22/07:00am 12.0 11.3 11.5 97 0.3 WSW 6 6 3 3 1021.1 1020.6 2.2
22/06:30am 12.2 11.4 11.7 97 0.3 SW 7 9 4 5 1020.7 1020.2 2.2
22/06:00am 12.4 11.6 11.8 96 0.3 SW 7 9 4 5 1020.1 1019.6 2.2
22/05:30am 13.0 12.4 12.4 96 0.3 WSW 7 9 4 5 1019.8 1019.3 2.0
22/05:00am 13.4 12.1 12.6 95 0.4 SW 11 13 6 7 1019.6 1019.1 2.0
22/04:30am 14.1 13.1 13.3 95 0.5 SW 11 15 6 8 1019.4 1018.8 2.0
22/04:00am 14.6 13.3 13.6 94 0.6 SW 13 17 7 9 1019.1 1018.5 2.0
22/03:30am 15.2 14.1 14.2 94 0.6 WSW 13 15 7 8 1018.9 1018.4 2.0
22/03:00am 15.5 14.1 14.4 93 0.6 WSW 15 17 8 9 1018.9 1018.4 2.0
22/02:30am 15.9 14.6 14.8 93 0.6 WSW 15 19 8 10 1018.8 1018.3 2.0
22/02:00am 16.3 15.5 15.2 93 0.6 WSW 13 17 7 9 1018.9 1018.4 2.0
22/01:30am 16.3 15.9 15.2 93 0.6 W 11 13 6 7 1018.7 1018.2 2.0
22/01:00am 16.3 15.8 15.0 92 0.8 W 11 15 6 8 1018.7 1018.2 2.0
22/12:30am 16.5 16.2 15.4 93 0.7 WNW 11 13 6 7 1018.6 1018.1 2.0
22/12:00am 16.5 16.2 15.4 93 0.7 WNW 11 13 6 7 1018.7 1018.2 2.0
 
Date/Time
WST
Temp
°C
App
Temp
°C
Dew
Point
Rel
Hum
%
Delta-T
°C
Wind Press
QNH
hPa
Press
MSL
hPa
Rain
since 9 am
mm
Dir
 
Spd
km/h
Gust
km/h
Spd
kts
Gust
kts
21/11:30pm 16.7 16.1 15.6 93 0.7 W 13 17 7 9 1018.6 1018.1 2.0
21/11:00pm 16.9 15.4 15.2 90 1.0 WSW 17 20 9 11 1018.7 1018.2 0.6
21/10:30pm 17.9 16.6 14.8 82 1.8 W 15 19 8 10 1018.6 1018.1 0.0
21/10:00pm 17.8 17.2 14.5 81 1.9 W 11 15 6 8 1018.6 1018.1 0.0
21/09:30pm 17.8 17.6 14.7 82 1.8 WNW 9 13 5 7 1018.7 1018.2 0.0
21/09:00pm 18.0 17.9 14.9 82 1.8 WNW 9 11 5 6 1018.6 1018.1 0.0
21/08:30pm 18.1 18.1 15.2 83 1.7 NNW 9 13 5 7 1018.4 1017.9 0.0
21/08:00pm 18.6 18.0 14.7 78 2.3 WNW 11 13 6 7 1018.4 1017.9 0.0
21/07:30pm 18.4 17.4 14.7 79 2.2 WSW 13 17 7 9 1017.7 1017.2 0.0
21/07:00pm 18.8 16.6 14.3 75 2.6 W 19 26 10 14 1017.4 1016.9 0.0
21/06:30pm 19.3 16.5 14.3 73 2.9 W 22 26 12 14 1017.0 1016.4 0.0
21/06:03pm 19.2 14.3 13.8 71 3.2 WSW 32 50 17 27 1016.7 1016.1 0.0
21/06:00pm 19.3 13.9 13.9 71 3.2 WSW 35 50 19 27 1016.4 1015.9 0.0
21/05:55pm 20.7 14.2 12.9 61 4.5 W 39 50 21 27 1016.1 1015.6 0.0
21/05:30pm 22.5 19.1 10.6 47 6.7 W 19 24 10 13 1015.6 1015.1 0.0
21/05:00pm 23.2 18.8 10.3 44 7.2 W 24 32 13 17 1015.1 1014.5 0.0
21/04:30pm 23.5 19.5 9.1 40 7.9 NW 20 33 11 18 1014.7 1014.1 0.0
21/04:00pm 23.8 19.4 9.0 39 8.1 NNW 22 32 12 17 1014.6 1014.0 0.0
21/03:30pm 23.7 18.9 8.9 39 8.1 WNW 24 33 13 18 1014.5 1013.9 0.0
21/03:00pm 23.7 19.8 9.3 40 7.9 WNW 20 28 11 15 1014.5 1013.9 0.0
21/02:30pm 24.4 20.2 9.6 39 8.2 NW 22 30 12 16 1014.6 1014.0 0.0
21/02:00pm 23.7 18.1 8.9 39 8.1 NW 28 41 15 22 1014.7 1014.1 0.0
21/01:30pm 24.2 18.6 8.6 37 8.5 NW 28 39 15 21 1014.8 1014.2 0.0
21/01:00pm 23.8 18.6 9.0 39 8.1 W 26 33 14 18 1015.1 1014.5 0.0
21/12:30pm 23.5 18.3 8.8 39 8.0 WNW 26 33 14 18 1015.4 1014.9 0.0
21/12:00pm 23.7 19.7 8.9 39 8.1 NW 20 30 11 16 1015.8 1015.3 0.0
21/11:30am 22.2 18.3 9.4 44 7.0 NW 20 30 11 16 1016.3 1015.8 0.0
21/11:00am 21.8 17.6 9.7 46 6.6 NW 22 28 12 15 1016.8 1016.2 0.0
21/10:30am 20.8 16.8 9.1 47 6.3 NNW 20 28 11 15 1017.1 1016.5 0.0
21/10:00am 20.1 15.9 8.4 47 6.2 NW 20 28 11 15 1017.2 1016.6 0.0
21/09:30am 19.3 15.6 8.0 48 5.9 NNW 17 22 9 12 1017.5 1017.0 0.0
21/09:00am 18.1 15.2 8.1 52 5.2 N 13 17 7 9 1017.3 1016.7 0.0
21/08:30am 16.4 13.1 8.1 58 4.3 N 15 20 8 11 1016.9 1016.3 0.0
21/08:00am 14.8 12.3 8.1 64 3.4 NNE 11 13 6 7 1016.4 1015.9 0.0
21/07:30am 13.2 9.9 7.9 70 2.7 NNE 15 17 8 9 1016.1 1015.6 0.0
21/07:00am 11.6 8.8 7.1 74 2.2 NNE 11 13 6 7 1016.0 1015.5 0.0
21/06:30am 10.2 7.9 5.6 73 2.2 N 7 9 4 5 1016.0 1015.5 0.0
21/06:00am 10.3 8.0 5.7 73 2.2 N 7 9 4 5 1015.9 1015.4 0.0
21/05:30am 10.4 8.2 6.2 75 2.0 NNE 7 9 4 5 1016.0 1015.5 0.0
21/05:00am 11.8 9.7 6.7 71 2.5 WNW 7 9 4 5 1015.9 1015.4 0.0
21/04:30am 12.4 9.2 6.7 68 2.8 WSW 13 17 7 9 1015.8 1015.3 0.0
21/04:00am 12.9 8.9 6.5 65 3.1 W 17 20 9 11 1015.9 1015.4 0.0
21/03:30am 12.6 9.3 4.8 59 3.7 W 11 13 6 7 1015.5 1015.0 0.0
21/03:00am 13.3 9.6 4.7 56 4.1 W 13 15 7 8 1015.5 1015.0 0.0
21/02:30am 13.6 9.5 4.5 54 4.3 W 15 17 8 9 1015.6 1015.1 0.0
21/02:00am 13.8 10.1 4.4 53 4.4 W 13 15 7 8 1015.9 1015.4 0.0
21/01:30am 13.3 9.9 3.9 53 4.4 NNW 11 13 6 7 1015.9 1015.4 0.0
21/01:00am 13.6 10.2 3.9 52 4.5 NNW 11 11 6 6 1016.0 1015.5 0.0
21/12:30am 14.3 10.5 4.0 50 4.8 NNW 13 15 7 8 1016.1 1015.6 0.0
21/12:00am 15.5 11.8 4.2 47 5.4 NNW 13 15 7 8 1016.3 1015.8 0.0
 
Date/Time
WST
Temp
°C
App
Temp
°C
Dew
Point
Rel
Hum
%
Delta-T
°C
Wind Press
QNH
hPa
Press
MSL
hPa
Rain
since 9 am
mm
Dir
 
Spd
km/h
Gust
km/h
Spd
kts
Gust
kts
20/11:30pm 14.4 10.6 4.1 50 4.8 NNW 13 13 7 7 1016.6 1016.0 0.0
20/11:00pm 16.0 12.3 4.4 46 5.5 NW 13 15 7 8 1016.8 1016.2 0.0
20/10:30pm 16.4 12.7 4.4 45 5.8 NW 13 15 7 8 1017.1 1016.5 0.0
20/10:00pm 16.7 13.0 4.4 44 5.9 NW 13 15 7 8 1017.3 1016.7 0.0
20/09:30pm 16.8 13.1 4.5 44 5.9 WNW 13 15 7 8 1017.3 1016.7 0.0
20/09:00pm 17.4 13.7 4.7 43 6.2 WNW 13 15 7 8 1017.4 1016.9 0.0
20/08:30pm 17.8 14.5 4.7 42 6.4 WNW 11 15 6 8 1017.1 1016.5 0.0
20/08:00pm 18.2 15.4 5.1 42 6.4 WNW 9 11 5 6 1016.9 1016.3 0.0
20/07:30pm 18.8 15.9 4.9 40 6.9 W 9 11 5 6 1016.7 1016.1 0.0
20/07:00pm 19.4 16.5 4.7 38 7.2 W 9 13 5 7 1016.6 1016.0 0.0
20/06:30pm 20.3 17.0 4.4 35 7.8 WNW 11 13 6 7 1016.2 1015.7 0.0
20/06:00pm 21.1 16.6 4.2 33 8.3 NW 17 20 9 11 1015.9 1015.4 0.0
20/05:30pm 21.8 17.0 4.4 32 8.7 NW 19 26 10 14 1015.8 1015.3 0.0
20/05:00pm 22.2 18.5 4.7 32 8.8 NW 13 20 7 11 1015.5 1015.0 0.0
20/04:30pm 22.7 18.4 5.2 32 8.9 NW 17 30 9 16 1015.4 1014.9 0.0
20/04:00pm 22.5 18.6 5.4 33 8.7 NW 15 22 8 12 1015.4 1014.9 0.0
20/03:30pm 21.7 17.4 5.2 34 8.3 W 17 22 9 12 1015.7 1015.2 0.0
20/03:00pm 21.7 19.4 5.6 35 8.2 WSW 7 13 4 7 1015.8 1015.3 0.0
20/02:30pm 21.2 18.0 5.1 35 8.1 W 11 22 6 12 1015.9 1015.4 0.0
20/02:00pm 20.8 17.2 5.2 36 7.8 NW 13 20 7 11 1016.2 1015.7 0.0
20/01:30pm 22.1 16.9 5.5 34 8.5 NNW 22 28 12 15 1016.4 1015.9 0.0
20/01:00pm 20.7 15.5 5.5 37 7.7 NNW 22 28 12 15 1016.9 1016.3 0.0
20/12:30pm 20.1 15.0 6.1 40 7.1 N 22 28 12 15 1017.2 1016.6 0.0
20/12:00pm 19.8 15.1 6.2 41 6.9 N 20 26 11 14 1017.6 1017.1 0.0
20/11:30am 20.2 17.6 6.2 40 7.1 NNE 9 19 5 10 1018.0 1017.5 0.0
20/11:00am 18.9 16.4 8.0 49 5.7 NNE 11 17 6 9 1018.1 1017.6 0.0
20/10:30am 18.4 16.2 9.2 55 4.9 NNE 11 17 6 9 1018.4 1017.9 0.0
20/10:00am 17.3 15.5 9.5 60 4.2 NE 9 15 5 8 1018.9 1018.4 0.0
20/09:30am 16.4 14.7 9.8 65 3.5 NE 9 11 5 6 1019.6 1019.1 0.0
20/09:00am 15.5 14.9 10.3 71 2.8 NW 4 7 2 4 1019.8 1019.3 0.0
20/08:30am 14.3 13.7 10.5 78 2.0 SSW 4 7 2 4 1019.6 - 0.0
20/08:00am 13.6 13.9 10.8 83 1.5 CALM 0 0 0 0 1019.3 1018.7 0.0
20/07:30am 12.1 11.4 10.2 88 1.0 NW 4 11 2 6 1019.3 - 0.0
20/07:00am 10.8 10.6 9.1 89 0.9 CALM 0 0 0 0 1018.9 1018.4 0.0
20/06:30am 11.1 9.9 9.4 89 0.9 WNW 6 7 3 4 1018.6 - 0.0
20/06:00am 11.8 10.7 10.0 89 0.9 WNW 6 7 3 4 1018.4 1017.9 0.0
20/05:30am 12.2 10.6 10.1 87 1.1 W 9 11 5 6 1018.2 - 0.0
20/05:00am 12.9 13.1 10.4 85 1.3 CALM 0 0 0 0 1018.0 1017.5 0.0
20/04:30am 13.3 12.2 10.7 84 1.4 SW 7 9 4 5 1018.2 - 0.0
20/04:00am 13.5 12.0 10.5 82 1.6 SW 9 11 5 6 1018.3 1017.8 0.0
20/03:30am 13.8 12.3 10.6 81 1.7 WSW 9 11 5 6 1018.3 - 0.0
20/03:00am 13.8 12.3 10.6 81 1.7 WSW 9 11 5 6 1018.2 1017.7 0.0
20/02:30am 13.9 12.1 10.7 81 1.7 WSW 11 13 6 7 1018.3 - 0.0
20/02:00am 13.9 12.4 10.5 80 1.8 WSW 9 11 5 6 1018.3 1017.8 0.0
20/01:30am 14.3 12.8 10.5 78 2.0 WSW 9 13 5 7 1018.6 - 0.0
20/01:00am 14.6 12.7 10.6 77 2.1 WSW 11 11 6 6 1018.7 1018.2 0.0
20/12:30am 14.9 13.4 10.7 76 2.3 WSW 9 11 5 6 1018.8 - 0.0
20/12:00am 15.4 14.0 10.8 74 2.5 SW 9 13 5 7 1018.8 1018.3 0.0
 
Date/Time
WST
Temp
°C
App
Temp
°C
Dew
Point
Rel
Hum
%
Delta-T
°C
Wind Press
QNH
hPa
Press
MSL
hPa
Rain
since 9 am
mm
Dir
 
Spd
km/h
Gust
km/h
Spd
kts
Gust
kts
19/11:30pm 15.7 13.5 10.9 73 2.6 WSW 13 17 7 9 1019.1 - 0.0
19/11:00pm 16.0 13.8 10.7 71 2.9 WSW 13 15 7 8 1019.2 1018.6 0.0
19/10:30pm 16.2 13.9 10.5 69 3.1 WSW 13 17 7 9 1019.2 - 0.0
19/10:00pm 16.4 14.1 10.5 68 3.2 SW 13 15 7 8 1019.3 1018.7 0.0
19/09:30pm 16.5 14.6 10.6 68 3.2 SW 11 15 6 8 1019.3 - 0.0
19/09:00pm 16.8 14.1 10.4 66 3.5 SW 15 19 8 10 1019.4 1018.8 0.0
19/08:30pm 17.1 13.6 10.2 64 3.7 SW 19 24 10 13 1019.4 - 0.0
19/08:00pm 17.4 14.2 9.8 61 4.1 SW 17 22 9 12 1019.1 1018.5 0.0
19/07:30pm 17.8 14.4 9.2 57 4.6 SW 17 22 9 12 1018.5 - 0.0
19/07:00pm 18.4 14.9 8.7 53 5.1 SW 17 20 9 11 1018.3 1017.8 0.0
19/06:30pm 19.1 15.7 7.5 47 6.0 WSW 15 20 8 11 1017.8 - 0.0
19/06:00pm 19.5 15.6 7.3 45 6.3 WSW 17 24 9 13 1017.6 1017.1 0.0
19/05:30pm 19.8 15.9 7.2 44 6.5 WSW 17 22 9 12 1017.6 - 0.0
19/05:00pm 20.1 16.6 7.1 43 6.7 WSW 15 22 8 12 1017.5 1017.0 0.0
19/04:30pm 20.1 15.8 7.1 43 6.7 W 19 24 10 13 1017.4 - 0.0
19/04:00pm 20.2 15.9 7.2 43 6.8 W 19 26 10 14 1017.5 1017.0 0.0
19/03:30pm 20.9 16.6 7.2 41 7.2 WSW 19 26 10 14 1017.6 - 0.0
19/03:00pm 20.9 16.6 7.2 41 7.1 W 19 24 10 13 1017.8 1017.3 0.0
19/02:30pm 20.6 16.1 6.2 39 7.4 W 19 33 10 18 1017.8 - 0.0
19/02:00pm 20.4 15.5 7.1 42 6.9 W 22 30 12 16 1017.9 1017.4 0.0
19/01:30pm 19.6 15.9 8.0 47 6.1 W 17 20 9 11 1018.2 - 0.0
19/01:00pm 19.6 16.0 8.3 48 6.0 WSW 17 26 9 14 1018.4 1017.9 0.0
19/12:30pm 18.6 15.1 7.1 47 5.9 W 15 26 8 14 1018.9 - 0.0

Other Formats:

Comma delimited format used in spreadsheet applications
http://www.bom.gov.au/fwo/IDW60801/IDW60801.94429.axf

JavaScript Object Notation format (JSON) in row-major order
http://www.bom.gov.au/fwo/IDW60801/IDW60801.94429.json